Time;durP1;ratioP1;P1;durP2;ratioP2;P2;SDS_P1;SDS_P2;PMS_P1;PMS_P2;Temp;Humidity;BMP_temperature;BMP_pressure;BME280_temperature;BME280_humidity;BME280_pressure;Samples;Min_cycle;Max_cycle;Signal;HPM_P1;HPM_P2
2023/01/29 00:02:13;;;;;;;35.35;18.65;;;;;;;5.32;100.00;102285.56;5023304;28;20061;-41
2023/01/29 00:05:00;;;;;;;35.65;20.17;;;;;;;5.31;100.00;102283.94;5025966;28;20065;-41
2023/01/29 00:08:06;;;;;;;30.70;16.25;;;;;;;5.29;100.00;102279.81;5025814;28;20076;-41
2023/01/29 00:10:59;;;;;;;28.65;17.63;;;;;;;5.28;100.00;102283.63;5025901;28;20058;-42
2023/01/29 00:13:46;;;;;;;29.92;16.35;;;;;;;5.28;100.00;102280.91;5018804;28;20069;-41
2023/01/29 00:16:33;;;;;;;32.13;16.33;;;;;;;5.26;100.00;102278.44;5026038;28;20050;-41
2023/01/29 00:19:20;;;;;;;26.50;16.17;;;;;;;5.25;100.00;102279.53;5027324;28;20050;-41
2023/01/29 00:22:38;;;;;;;30.67;15.30;;;;;;;5.25;100.00;102285.00;5020139;28;20407;-41
2023/01/29 00:25:25;;;;;;;30.98;15.07;;;;;;;5.25;100.00;102275.94;5010831;28;20054;-41
2023/01/29 00:28:18;;;;;;;24.63;13.90;;;;;;;5.24;100.00;102272.38;5025853;28;20057;-41
2023/01/29 00:31:13;;;;;;;23.42;14.43;;;;;;;5.25;100.00;102282.25;5025441;28;20053;-41
2023/01/29 00:34:00;;;;;;;22.73;13.13;;;;;;;5.26;100.00;102285.84;5022620;28;20051;-41
2023/01/29 00:36:47;;;;;;;22.05;12.02;;;;;;;5.24;100.00;102279.81;5018937;28;20046;-40
2023/01/29 00:39:37;;;;;;;24.63;13.95;;;;;;;5.22;100.00;102285.56;5027731;28;20052;-42
2023/01/29 00:45:39;;;;;;;22.70;12.27;;;;;;;5.18;100.00;102295.44;5029897;28;20408;-40
2023/01/29 00:48:26;;;;;;;23.00;12.45;;;;;;;5.17;100.00;102282.78;5029700;28;20053;-40
2023/01/29 00:51:13;;;;;;;21.92;12.57;;;;;;;5.17;100.00;102284.72;5030962;28;20049;-40
2023/01/29 00:54:00;;;;;;;18.75;11.27;;;;;;;5.17;100.00;102288.28;5017118;28;20128;-40
2023/01/29 00:56:47;;;;;;;17.08;10.73;;;;;;;5.15;100.00;102287.75;5028849;28;20056;-40
2023/01/29 00:59:34;;;;;;;22.38;11.27;;;;;;;5.13;100.00;102280.88;5031339;28;20053;-40
2023/01/29 01:05:28;;;;;;;17.30;11.38;;;;;;;5.12;100.00;102271.81;5029874;28;20049;-40
2023/01/29 01:11:20;;;;;;;19.38;11.45;;;;;;;5.09;100.00;102264.13;5028790;28;20038;-40
2023/01/29 01:14:08;;;;;;;17.83;9.98;;;;;;;5.07;100.00;102255.34;5031429;28;20041;-40
2023/01/29 01:16:55;;;;;;;16.65;10.15;;;;;;;5.06;100.00;102253.69;5015418;28;20061;-40
2023/01/29 01:19:42;;;;;;;17.13;10.38;;;;;;;5.06;100.00;102258.34;5031130;28;20045;-40
2023/01/29 01:22:30;;;;;;;15.50;9.68;;;;;;;5.06;100.00;102258.34;5028493;28;20143;-40
2023/01/29 01:25:17;;;;;;;15.13;9.25;;;;;;;5.07;100.00;102263.56;5029343;28;20501;-40
2023/01/29 01:28:04;;;;;;;17.58;9.68;;;;;;;5.06;100.00;102250.94;5029398;28;20052;-40
2023/01/29 01:30:51;;;;;;;15.13;9.43;;;;;;;5.07;100.00;102244.34;5028335;28;20041;-40
2023/01/29 01:33:39;;;;;;;17.63;9.23;;;;;;;5.07;100.00;102244.34;5029112;28;20396;-42
2023/01/29 01:36:26;;;;;;;16.75;8.73;;;;;;;5.05;100.00;102234.75;5028613;28;20072;-40
2023/01/29 01:39:13;;;;;;;14.95;8.95;;;;;;;5.04;100.00;102228.44;5030006;28;20046;-40
2023/01/29 01:42:00;;;;;;;14.05;9.35;;;;;;;5.01;100.00;102228.97;5030856;28;20053;-40
2023/01/29 01:45:06;;;;;;;15.90;8.23;;;;;;;4.99;100.00;102228.41;5029399;28;20072;-40
2023/01/29 01:47:56;;;;;;;14.52;8.77;;;;;;;4.97;100.00;102225.13;5025556;28;20491;-40
2023/01/29 01:50:57;;;;;;;12.65;7.60;;;;;;;4.95;100.00;102224.56;5028791;28;20053;-40
2023/01/29 01:53:56;;;;;;;14.25;8.20;;;;;;;4.95;100.00;102221.00;5029043;28;20053;-40
2023/01/29 01:56:48;;;;;;;10.63;7.07;;;;;;;4.94;100.00;102220.19;5025035;28;20041;-40
2023/01/29 01:59:38;;;;;;;10.90;7.15;;;;;;;4.92;100.00;102227.88;5028562;28;20415;-40
2023/01/29 02:11:51;;;;;;;11.40;7.07;;;;;;;4.93;100.00;102221.25;5017174;28;20045;-40
2023/01/29 02:14:39;;;;;;;13.68;7.55;;;;;;;4.92;100.00;102227.88;5030184;28;20045;-40
2023/01/29 02:17:26;;;;;;;12.05;7.93;;;;;;;4.92;100.00;102227.88;5029752;28;20045;-40
2023/01/29 02:20:28;;;;;;;14.52;7.53;;;;;;;4.92;100.00;102219.63;5027325;28;20211;-40
2023/01/29 02:23:36;;;;;;;11.27;7.27;;;;;;;4.90;100.00;102222.63;5017382;28;20057;-40
2023/01/29 02:27:05;;;;;;;12.25;7.95;;;;;;;4.91;100.00;102217.97;5016648;28;20041;-40
2023/01/29 02:30:07;;;;;;;11.70;7.55;;;;;;;4.91;100.00;102196.03;5028587;28;20048;-40
2023/01/29 02:33:12;;;;;;;10.07;7.38;;;;;;;4.91;100.00;102207.00;5018750;28;20057;-40
2023/01/29 02:36:18;;;;;;;10.50;7.15;;;;;;;4.90;100.00;102184.22;5028149;28;20046;-40
2023/01/29 02:39:36;;;;;;;8.73;6.30;;;;;;;4.90;100.00;102186.97;5029180;28;20049;-40
2023/01/29 02:42:37;;;;;;;11.27;7.03;;;;;;;4.88;100.00;102191.06;5018205;28;20065;-40
2023/01/29 02:45:37;;;;;;;7.53;5.65;;;;;;;4.88;100.00;102180.09;5032206;28;20053;-40
2023/01/29 02:48:33;;;;;;;9.00;5.03;;;;;;;4.87;100.00;102173.78;5032638;28;20046;-40
2023/01/29 02:51:27;;;;;;;8.43;5.25;;;;;;;4.87;100.00;102162.00;5033257;28;20057;-40
2023/01/29 02:54:33;;;;;;;7.72;5.55;;;;;;;4.88;100.00;102163.63;5032020;28;20052;-40
2023/01/29 02:57:24;;;;;;;8.55;4.95;;;;;;;4.89;100.00;102168.88;5022834;28;20064;-40
2023/01/29 03:03:07;;;;;;;6.53;4.90;;;;;;;4.90;100.00;102156.78;5056179;22;20056;-40
2023/01/29 03:06:07;;;;;;;6.65;4.32;;;;;;;4.88;100.00;102155.41;5052596;28;20041;-40
2023/01/29 03:08:59;;;;;;;7.57;5.15;;;;;;;4.87;100.00;102151.03;5057944;28;20052;-40
2023/01/29 03:11:51;;;;;;;7.20;4.83;;;;;;;4.88;100.00;102158.16;5051987;28;20045;-40
2023/01/29 03:18:04;;;;;;;8.95;4.40;;;;;;;4.85;100.00;102153.19;5052379;28;20056;-41
2023/01/29 03:21:49;;;;;;;5.53;4.55;;;;;;;4.80;100.00;102132.06;5049394;28;20106;-41
2023/01/29 03:34:23;;;;;;;5.47;4.10;;;;;;;4.70;100.00;102136.72;5052058;28;20040;-43
2023/01/29 03:37:18;;;;;;;6.53;3.45;;;;;;;4.69;100.00;102133.16;5053210;28;20047;-41
2023/01/29 03:40:07;;;;;;;4.50;3.60;;;;;;;4.69;100.00;102124.09;5051337;28;20048;-41
2023/01/29 03:43:24;;;;;;;6.13;3.15;;;;;;;4.70;100.00;102117.53;5037450;28;20466;-41
2023/01/29 03:46:27;;;;;;;4.93;3.33;;;;;;;4.68;100.00;102111.50;5043137;28;20422;-41
2023/01/29 03:49:56;;;;;;;8.60;3.38;;;;;;;4.68;100.00;102106.84;5037355;28;20049;-41
2023/01/29 03:53:04;;;;;;;5.55;3.25;;;;;;;4.69;100.00;102107.63;5042555;28;20056;-41
2023/01/29 03:55:54;;;;;;;3.63;2.50;;;;;;;4.69;100.00;102099.41;5050748;28;20049;-41
2023/01/29 03:59:33;;;;;;;3.70;2.92;;;;;;;4.69;100.00;102096.66;5042292;28;20052;-41
2023/01/29 04:02:48;;;;;;;4.10;2.83;;;;;;;4.65;100.00;102090.91;5004649;28;20072;-41
2023/01/29 04:05:50;;;;;;;3.17;2.42;;;;;;;4.64;100.00;102080.19;5039916;28;20111;-42
2023/01/29 04:08:51;;;;;;;5.38;3.03;;;;;;;4.57;100.00;102069.50;5058999;28;20067;-41
2023/01/29 04:11:44;;;;;;;4.85;2.38;;;;;;;4.52;100.00;102074.16;5050775;28;20059;-41
2023/01/29 04:14:31;;;;;;;5.55;2.47;;;;;;;4.44;100.00;102069.22;5040523;28;20063;-41
2023/01/29 04:17:24;;;;;;;2.33;1.95;;;;;;;4.38;100.00;102059.34;5051026;28;20060;-41
2023/01/29 04:20:11;;;;;;;4.45;2.63;;;;;;;4.34;100.00;102070.03;5040518;28;20049;-41
2023/01/29 04:22:58;;;;;;;5.65;2.45;;;;;;;4.31;100.00;102065.91;5040849;28;20045;-41
2023/01/29 04:25:53;;;;;;;8.20;2.83;;;;;;;4.29;100.00;102059.03;5047239;28;20053;-41
2023/01/29 04:28:49;;;;;;;4.22;1.90;;;;;;;4.27;100.00;102053.00;5045164;28;20047;-41
2023/01/29 04:32:00;;;;;;;2.72;1.58;;;;;;;4.24;100.00;102048.91;5046912;28;20037;-41
2023/01/29 04:35:07;;;;;;;4.97;2.72;;;;;;;4.20;100.00;102052.47;5049921;28;20041;-41
2023/01/29 04:38:39;;;;;;;6.75;2.38;;;;;;;4.17;100.00;102045.59;5040545;28;20155;-41
2023/01/29 04:42:22;;;;;;;4.32;1.85;;;;;;;4.15;100.00;102041.50;5043972;28;20037;-41
2023/01/29 04:45:29;;;;;;;2.65;1.33;;;;;;;4.12;100.00;102040.13;5041484;28;20136;-41
2023/01/29 04:49:13;;;;;;;3.75;1.48;;;;;;;4.09;100.00;102046.13;5047519;28;20414;-41
2023/01/29 04:52:11;;;;;;;3.92;2.00;;;;;;;4.08;100.00;102036.25;5004817;28;20159;-43
2023/01/29 04:55:28;;;;;;;4.90;1.83;;;;;;;4.06;100.00;102038.44;5005337;28;20404;-41
2023/01/29 04:58:43;;;;;;;3.80;2.08;;;;;;;4.03;100.00;102046.38;5048066;28;20418;-44
2023/01/29 05:01:32;;;;;;;6.68;1.38;;;;;;;4.00;100.00;102036.78;5044736;28;20394;-41
2023/01/29 05:04:59;;;;;;;4.53;1.40;;;;;;;3.98;100.00;102028.00;5046298;28;20391;-41
2023/01/29 05:08:16;;;;;;;3.03;1.17;;;;;;;3.98;100.00;102029.91;5054402;28;20044;-41
2023/01/29 05:11:04;;;;;;;1.38;0.95;;;;;;;3.97;100.00;102026.34;5047815;28;20115;-41
2023/01/29 05:13:53;;;;;;;6.28;1.17;;;;;;;3.99;100.00;102028.84;5050643;28;20075;-41
2023/01/29 05:20:52;;;;;;;7.97;1.52;;;;;;;3.98;100.00;102024.44;5049267;28;20467;-49
2023/01/29 05:23:56;;;;;;;1.88;1.00;;;;;;;3.97;100.00;102020.88;5043175;28;20402;-41
2023/01/29 05:30:10;;;;;;;6.95;1.50;;;;;;;3.96;100.00;102012.94;5041647;28;20053;-41
2023/01/29 05:32:57;;;;;;;3.40;1.10;;;;;;;3.97;100.00;101996.22;5048585;28;20418;-40
2023/01/29 05:35:45;;;;;;;1.67;1.20;;;;;;;3.97;100.00;102007.16;5048050;28;20040;-41
2023/01/29 05:38:32;;;;;;;4.38;1.40;;;;;;;4.01;100.00;101999.25;5050494;28;20499;-42
2023/01/29 05:46:01;;;;;;;2.17;1.05;;;;;;;4.08;100.00;101997.88;5050872;28;20040;-40
2023/01/29 05:52:35;;;;;;;1.38;0.85;;;;;;;4.16;100.00;101989.13;5040005;28;20044;-43
2023/01/29 05:55:22;;;;;;;1.58;1.00;;;;;;;4.22;100.00;101990.78;5044114;28;20056;-41
2023/01/29 06:01:53;;;;;;;1.85;0.75;;;;;;;4.31;100.00;101980.13;5042447;28;20044;-41
2023/01/29 06:04:40;;;;;;;0.75;0.60;;;;;;;4.35;100.00;101988.59;5049113;28;20127;-41
2023/01/29 06:07:27;;;;;;;4.20;0.60;;;;;;;4.37;100.00;101983.69;5057404;28;20055;-45
2023/01/29 06:10:23;;;;;;;2.97;0.65;;;;;;;4.40;100.00;101974.88;5033744;28;20049;-41
2023/01/29 06:13:10;;;;;;;3.25;0.95;;;;;;;4.41;100.00;101979.28;5048028;28;20041;-41
2023/01/29 06:15:57;;;;;;;2.25;0.70;;;;;;;4.42;100.00;101975.47;5050356;28;20037;-41
2023/01/29 06:18:44;;;;;;;0.77;0.40;;;;;;;4.44;100.00;101970.50;5047237;28;20052;-41
2023/01/29 06:21:31;;;;;;;2.72;0.60;;;;;;;4.45;100.00;101978.44;5040014;28;20036;-47
2023/01/29 06:24:18;;;;;;;0.52;0.52;;;;;;;4.45;100.00;101978.44;5053370;28;20045;-44
2023/01/29 06:27:05;;;;;;;1.38;0.68;;;;;;;4.46;100.00;101974.63;5056316;28;20045;-41
2023/01/29 06:29:52;;;;;;;1.38;0.43;;;;;;;4.47;100.00;101981.75;5058036;28;21197;-41
2023/01/29 06:40:50;;;;;;;1.55;0.47;;;;;;;4.47;100.00;101970.78;5050444;28;20402;-42
2023/01/29 06:44:24;;;;;;;1.33;0.93;;;;;;;4.46;100.00;101968.31;5047223;28;20057;-41
2023/01/29 06:47:11;;;;;;;1.20;0.68;;;;;;;4.46;100.00;101968.31;5052586;28;20422;-41
2023/01/29 06:49:58;;;;;;;2.10;0.60;;;;;;;4.47;100.00;101961.75;5050088;28;20041;-41
2023/01/29 07:01:06;;;;;;;0.75;0.55;;;;;;;4.47;100.00;101954.34;5052912;28;20371;-41
2023/01/29 07:08:25;;;;;;;1.52;0.82;;;;;;;4.47;100.00;101962.56;5060181;28;20102;-41
2023/01/29 07:11:30;;;;;;;4.68;0.93;;;;;;;4.48;100.00;101952.41;5057551;28;20056;-41
2023/01/29 07:14:17;;;;;;;2.33;0.90;;;;;;;4.48;100.00;101944.16;5049268;28;20441;-41
2023/01/29 07:17:24;;;;;;;1.17;0.68;;;;;;;4.49;100.00;101934.84;5049752;28;20513;-41
2023/01/29 07:20:11;;;;;;;0.50;0.40;;;;;;;4.50;100.00;101942.00;5047640;28;20041;-41
2023/01/29 07:23:25;;;;;;;1.40;0.70;;;;;;;4.49;100.00;101926.63;5055110;28;20048;-41
2023/01/29 07:26:12;;;;;;;1.13;0.90;;;;;;;4.49;100.00;101918.41;5047716;28;20380;-41
2023/01/29 07:28:58;;;;;;;2.53;0.88;;;;;;;4.48;100.00;101923.06;5049595;28;20056;-41
2023/01/29 07:31:45;;;;;;;2.30;0.80;;;;;;;4.48;100.00;101922.25;5050073;28;20045;-41
2023/01/29 07:34:41;;;;;;;2.22;0.68;;;;;;;4.48;100.00;101916.75;5039931;28;20044;-41
2023/01/29 07:37:28;;;;;;;1.90;0.90;;;;;;;4.47;100.00;101920.63;5050254;28;20402;-41
2023/01/29 07:40:15;;;;;;;1.17;0.60;;;;;;;4.47;100.00;101909.66;5043508;28;20411;-41
2023/01/29 07:43:05;;;;;;;2.17;0.60;;;;;;;4.47;100.00;101917.88;5053176;28;20048;-41
2023/01/29 07:45:52;;;;;;;0.85;0.57;;;;;;;4.48;100.00;101911.28;5040348;28;20053;-41
2023/01/29 07:48:39;;;;;;;2.45;1.13;;;;;;;4.48;100.00;101905.78;5051396;28;20053;-41
2023/01/29 07:51:26;;;;;;;2.08;1.02;;;;;;;4.50;100.00;101909.91;5049685;28;20041;-41
2023/01/29 07:54:13;;;;;;;1.95;0.52;;;;;;;4.52;100.00;101912.38;5049147;28;20495;-41
2023/01/29 07:57:00;;;;;;;1.33;0.70;;;;;;;4.54;100.00;101905.50;5050801;28;20568;-41
2023/01/29 07:59:47;;;;;;;1.08;0.60;;;;;;;4.56;100.00;101902.47;5050791;28;20112;-41
2023/01/29 08:02:34;;;;;;;0.70;0.60;;;;;;;4.58;100.00;101911.28;5050217;28;20053;-41
2023/01/29 08:05:21;;;;;;;3.88;0.90;;;;;;;4.61;100.00;101899.72;5050994;28;20130;-41
2023/01/29 08:08:08;;;;;;;1.98;0.70;;;;;;;4.61;100.00;101897.81;5059929;28;20050;-41
2023/01/29 08:10:55;;;;;;;4.10;0.85;;;;;;;4.62;100.00;101901.38;5048041;28;20056;-44
2023/01/29 08:13:48;;;;;;;1.52;1.00;;;;;;;4.64;100.00;101901.91;5040721;28;20052;-41
2023/01/29 08:16:35;;;;;;;1.20;0.65;;;;;;;4.67;100.00;101898.63;5042616;28;20048;-41
2023/01/29 08:19:22;;;;;;;1.45;0.90;;;;;;;4.70;100.00;101898.06;5044584;28;20094;-41
2023/01/29 08:22:09;;;;;;;3.55;0.82;;;;;;;4.73;100.00;101903.00;5050332;28;20045;-42
2023/01/29 08:24:56;;;;;;;3.55;0.60;;;;;;;4.74;100.00;101904.63;5037009;28;20053;-41
2023/01/29 08:27:55;;;;;;;4.53;0.82;;;;;;;4.76;100.00;101903.28;5042383;28;20518;-41
2023/01/29 08:30:43;;;;;;;1.83;0.90;;;;;;;4.79;100.00;101902.69;5036040;28;20053;-41
2023/01/29 08:33:30;;;;;;;2.65;0.73;;;;;;;4.82;100.00;101912.28;5043785;28;20156;-41
2023/01/29 08:36:25;;;;;;;4.20;1.52;;;;;;;4.84;100.00;101912.88;5038992;28;20045;-41
2023/01/29 08:39:12;;;;;;;3.50;0.98;;;;;;;4.86;100.00;101902.44;5051483;28;20049;-41
2023/01/29 08:41:59;;;;;;;2.13;0.70;;;;;;;4.88;100.00;101906.53;5050415;28;20056;-42
2023/01/29 08:44:46;;;;;;;4.60;1.10;;;;;;;4.91;100.00;101916.13;5040184;28;20049;-42
2023/01/29 08:47:33;;;;;;;3.13;0.60;;;;;;;4.93;100.00;101922.16;5045326;28;20041;-42
2023/01/29 08:50:20;;;;;;;1.10;1.00;;;;;;;4.97;100.00;101920.50;5047559;28;20099;-41
2023/01/29 08:53:08;;;;;;;1.98;1.30;;;;;;;4.98;100.00;101908.41;5048857;28;20056;-42
2023/01/29 08:55:55;;;;;;;1.88;1.08;;;;;;;5.01;100.00;101916.09;5048642;28;20049;-41
2023/01/29 08:58:43;;;;;;;5.00;0.85;;;;;;;5.03;100.00;101908.38;5033952;28;20045;-41
2023/01/29 09:01:30;;;;;;;7.00;1.02;;;;;;;5.05;100.00;101905.38;5042276;28;20731;-41
2023/01/29 09:04:30;;;;;;;2.58;1.13;;;;;;;5.09;100.00;101900.97;5047732;28;20040;-41
2023/01/29 09:07:46;;;;;;;4.03;1.17;;;;;;;5.11;100.00;101902.31;5045587;28;20033;-41
2023/01/29 09:10:33;;;;;;;4.45;0.90;;;;;;;5.13;100.00;101896.56;5038633;28;20048;-42
2023/01/29 09:13:20;;;;;;;3.55;0.70;;;;;;;5.16;100.00;101905.06;5041893;28;20046;-42
2023/01/29 09:16:09;;;;;;;3.63;1.10;;;;;;;5.20;100.00;101908.88;5044539;28;20041;-42
2023/01/29 09:19:27;;;;;;;3.42;0.90;;;;;;;5.25;100.00;101908.84;5053516;28;20056;-43
2023/01/29 09:22:23;;;;;;;1.58;0.90;;;;;;;5.28;100.00;101905.56;5046586;28;20511;-42
2023/01/29 09:25:10;;;;;;;2.88;1.23;;;;;;;5.31;100.00;101910.50;5041768;28;20041;-42
2023/01/29 09:27:57;;;;;;;2.75;1.15;;;;;;;5.34;100.00;101920.09;5034446;28;20053;-46
2023/01/29 09:30:44;;;;;;;2.20;0.98;;;;;;;5.39;100.00;101912.66;5029731;28;20045;-41
2023/01/29 09:33:31;;;;;;;4.43;1.35;;;;;;;5.42;100.00;101914.00;5040671;28;20569;-41
2023/01/29 09:36:18;;;;;;;4.60;1.20;;;;;;;5.45;100.00;101914.25;5024906;28;20495;-41
2023/01/29 09:39:05;;;;;;;9.27;1.35;;;;;;;5.49;100.00;101915.34;5043124;28;20506;-43
2023/01/29 09:42:02;;;;;;;2.13;1.13;;;;;;;5.50;100.00;101921.66;5048952;28;20057;-41
2023/01/29 09:45:15;;;;;;;7.65;1.63;;;;;;;5.51;100.00;101915.88;5036778;28;20057;-42
2023/01/29 09:48:04;;;;;;;5.38;2.13;;;;;;;5.52;100.00;101913.94;5035234;28;20052;-41
2023/01/29 09:50:55;;;;;;;2.60;1.40;;;;;;;5.52;100.00;101923.00;5040466;28;20048;-42
2023/01/29 09:53:53;;;;;;;3.58;1.65;;;;;;;5.53;100.00;101916.41;5046264;28;20521;-41
2023/01/29 09:56:41;;;;;;;4.65;1.70;;;;;;;5.52;100.00;101912.03;5039815;28;20049;-41
2023/01/29 09:59:30;;;;;;;4.05;1.50;;;;;;;5.56;100.00;101919.72;5051349;28;20049;-42
2023/01/29 10:02:30;;;;;;;4.93;1.60;;;;;;;5.56;100.00;101906.78;5040752;28;20041;-42
2023/01/29 10:05:39;;;;;;;2.10;1.55;;;;;;;5.57;100.00;101904.84;5045414;28;20045;-42
2023/01/29 10:08:35;;;;;;;4.35;1.40;;;;;;;5.58;100.00;101906.50;5046754;28;20045;-42
2023/01/29 10:15:33;;;;;;;5.35;1.63;;;;;;;5.61;100.00;101903.19;5046764;28;20048;-41
2023/01/29 10:18:28;;;;;;;3.80;1.33;;;;;;;5.65;100.00;101898.75;5044933;28;20045;-42
2023/01/29 10:21:36;;;;;;;1.95;1.48;;;;;;;5.67;100.00;101899.28;5047776;28;20045;-41
2023/01/29 10:24:59;;;;;;;5.35;2.33;;;;;;;5.71;100.00;101894.88;5043589;28;20048;-42
2023/01/29 10:27:48;;;;;;;;;;;;;;;5.74;100.00;101902.56;5046165;28;20495;-41
2023/01/29 10:30:43;;;;;;;4.82;1.67;;;;;;;5.76;100.00;101894.84;5044829;28;20259;-45
2023/01/29 10:33:52;;;;;;;1.65;1.48;;;;;;;5.79;100.00;101891.53;5048110;28;20557;-42
2023/01/29 10:36:49;;;;;;;3.30;1.90;;;;;;;5.83;100.00;101889.84;5043379;28;20131;-42
2023/01/29 10:39:36;;;;;;;1.50;1.20;;;;;;;5.85;100.00;101895.94;5040109;28;20037;-41
2023/01/29 10:42:35;;;;;;;6.00;2.70;;;;;;;5.89;100.00;101883.25;5048494;28;20049;-42
2023/01/29 10:45:49;;;;;;;10.10;3.00;;;;;;;5.92;100.00;101871.69;5043446;28;20517;-46
2023/01/29 10:52:33;;;;;;;4.35;1.77;;;;;;;5.96;100.00;101867.22;5046815;28;20414;-41
2023/01/29 10:55:41;;;;;;;2.63;1.60;;;;;;;5.98;100.00;101865.84;5003587;28;20525;-42
2023/01/29 10:58:47;;;;;;;5.70;2.10;;;;;;;6.00;100.00;101857.31;5046808;28;20045;-41
2023/01/29 11:01:34;;;;;;;4.00;1.60;;;;;;;6.02;100.00;101866.91;5047920;28;20406;-41
2023/01/29 11:04:22;;;;;;;5.20;1.77;;;;;;;6.05;100.00;101857.28;5050406;28;20085;-41
2023/01/29 11:07:12;;;;;;;5.93;1.95;;;;;;;6.07;100.00;101852.31;5048931;28;20044;-41
2023/01/29 11:10:36;;;;;;;2.38;1.30;;;;;;;6.11;100.00;101856.13;5039382;28;20051;-41
2023/01/29 11:13:30;;;;;;;5.75;1.95;;;;;;;6.12;100.00;101864.09;5040644;28;20041;-41
2023/01/29 11:20:35;;;;;;;4.43;2.40;;;;;;;6.14;100.00;101858.31;5043897;28;20029;-42
2023/01/29 11:23:42;;;;;;;5.28;1.77;;;;;;;6.12;100.00;101839.34;5048610;28;20383;-41
2023/01/29 11:26:40;;;;;;;3.97;1.70;;;;;;;6.13;100.00;101823.66;5046983;28;20041;-41
2023/01/29 11:29:43;;;;;;;3.30;2.05;;;;;;;6.15;100.00;101821.44;5040685;28;20494;-41
2023/01/29 11:36:38;;;;;;;3.40;2.35;;;;;;;6.21;100.00;101813.97;5049475;28;20055;-41
2023/01/29 11:39:27;;;;;;;3.72;2.97;;;;;;;6.24;100.00;101816.97;5051680;28;20043;-41
2023/01/29 11:42:20;;;;;;;5.95;3.55;;;;;;;6.27;100.00;101799.06;5049541;28;20053;-41
2023/01/29 11:49:31;;;;;;;5.70;2.20;;;;;;;6.38;100.00;101793.16;5044784;28;20045;-41
2023/01/29 11:52:22;;;;;;;3.28;2.00;;;;;;;6.46;100.00;101799.97;5050240;28;20077;-42
2023/01/29 11:55:16;;;;;;;3.03;2.30;;;;;;;6.53;100.00;101782.00;5050288;28;20044;-42
2023/01/29 11:58:14;;;;;;;7.38;2.45;;;;;;;6.58;100.00;101768.19;5052404;28;20126;-41
2023/01/29 12:01:02;;;;;;;4.30;2.13;;;;;;;6.68;100.00;101754.28;5044103;28;20041;-41
2023/01/29 12:03:52;;;;;;;3.53;2.05;;;;;;;6.79;100.00;101743.13;5039457;28;20064;-42
2023/01/29 12:06:42;;;;;;;5.78;2.05;;;;;;;6.85;100.00;101745.53;5034501;28;20049;-43
2023/01/29 12:09:30;;;;;;;5.55;1.90;;;;;;;6.91;100.00;101740.78;5044951;28;20044;-41
2023/01/29 12:12:30;;;;;;;2.28;1.75;;;;;;;6.96;100.00;101744.28;5049900;28;20517;-42
2023/01/29 12:15:32;;;;;;;6.18;1.90;;;;;;;7.01;100.00;101741.47;5051490;28;20445;-41
2023/01/29 12:18:29;;;;;;;4.80;2.42;;;;;;;7.07;100.00;101725.69;5038586;28;20046;-41
2023/01/29 12:21:42;;;;;;;4.53;2.47;;;;;;;7.12;100.00;101720.91;5035056;28;20045;-42
